createdAt,value
2022-11-01T00:02:00.943Z,67.33
2022-11-01T00:04:28.062Z,67.90
2022-11-01T00:06:55.163Z,67.79
2022-11-01T00:09:22.253Z,67.49
2022-11-01T00:11:49.482Z,67.77
2022-11-01T00:14:18.762Z,67.94
2022-11-01T00:16:45.672Z,67.57
2022-11-01T00:19:13.990Z,67.90
2022-11-01T00:21:40.954Z,67.59
2022-11-01T00:24:08.094Z,68.03
2022-11-01T00:26:35.349Z,67.84
2022-11-01T00:29:02.410Z,67.90
2022-11-01T00:31:29.953Z,67.98
2022-11-01T00:33:57.100Z,67.84
2022-11-01T00:36:25.243Z,67.53
2022-11-01T00:38:52.828Z,67.66
2022-11-01T00:41:21.133Z,67.33
2022-11-01T00:43:47.992Z,67.19
2022-11-01T00:46:15.135Z,67.45
2022-11-01T00:48:42.199Z,67.34
2022-11-01T00:51:09.170Z,67.76
2022-11-01T00:53:36.182Z,68.09
2022-11-01T00:56:07.223Z,68.11
2022-11-01T00:58:35.642Z,67.71
2022-11-01T01:01:02.983Z,68.15
2022-11-01T01:03:29.982Z,68.51
2022-11-01T01:05:57.062Z,68.56
2022-11-01T01:08:24.723Z,67.55
2022-11-01T01:10:51.922Z,67.78
2022-11-01T01:13:19.403Z,67.53
2022-11-01T01:15:46.492Z,67.40
2022-11-01T01:18:14.143Z,67.15
2022-11-01T01:20:41.202Z,67.33
2022-11-01T01:23:08.325Z,67.50
2022-11-01T01:25:35.422Z,67.50
2022-11-01T01:28:02.655Z,67.16
2022-11-01T01:30:29.802Z,67.50
2022-11-01T01:32:56.802Z,67.38
2022-11-01T01:35:23.823Z,67.40
2022-11-01T01:37:50.903Z,67.68
2022-11-01T01:40:17.922Z,67.28
2022-11-01T01:42:44.984Z,67.19
2022-11-01T01:45:26.782Z,67.02
2022-11-01T01:47:55.910Z,66.72
2022-11-01T01:50:36.844Z,67.01
2022-11-01T01:53:12.702Z,67.50
2022-11-01T01:56:26.982Z,67.59
2022-11-01T01:59:06.961Z,67.35
2022-11-01T02:01:37.309Z,67.11
2022-11-01T02:04:09.322Z,67.61
2022-11-01T02:06:38.024Z,67.28
2022-11-01T02:09:07.222Z,67.90
2022-11-01T02:11:34.903Z,68.19
2022-11-01T02:14:03.422Z,68.53
2022-11-01T02:16:45.109Z,67.99
2022-11-01T02:19:54.182Z,67.75
2022-11-01T02:22:52.088Z,68.06
2022-11-01T02:25:41.246Z,67.28
2022-11-01T02:28:46.073Z,68.35
2022-11-01T02:31:50.563Z,68.44
2022-11-01T02:34:33.482Z,68.88
2022-11-01T02:37:28.890Z,68.54
2022-11-01T02:40:08.562Z,68.70
2022-11-01T02:42:55.584Z,67.87
2022-11-01T02:45:34.605Z,68.41
2022-11-01T02:48:03.027Z,68.11
2022-11-01T02:50:54.203Z,68.27
2022-11-01T02:53:21.264Z,68.55
2022-11-01T02:55:48.325Z,68.09
2022-11-01T02:58:27.882Z,68.32
2022-11-01T03:00:57.265Z,68.28
2022-11-01T03:03:31.878Z,68.17
2022-11-01T03:06:01.823Z,67.91
2022-11-01T03:08:34.886Z,67.83
2022-11-01T03:11:11.327Z,67.75
2022-11-01T03:13:57.910Z,67.38
2022-11-01T03:16:52.047Z,67.15
2022-11-01T03:19:29.243Z,67.34
2022-11-01T03:21:59.342Z,67.11
2022-11-01T03:25:02.282Z,67.30
2022-11-01T03:27:36.062Z,67.48
2022-11-01T03:30:09.790Z,66.96
2022-11-01T03:32:47.078Z,67.55
2022-11-01T03:35:24.664Z,67.85
2022-11-01T03:37:55.723Z,67.48
2022-11-01T03:40:26.585Z,67.75
2022-11-01T03:42:58.105Z,67.55
2022-11-01T03:45:27.087Z,67.61
2022-11-01T03:47:54.142Z,67.40
2022-11-01T03:50:22.812Z,68.33
2022-11-01T03:52:50.324Z,68.00
2022-11-01T03:55:19.257Z,68.08
2022-11-01T03:58:00.277Z,67.96
2022-11-01T04:00:33.369Z,67.71
2022-11-01T04:03:01.391Z,67.62
2022-11-01T04:05:30.823Z,67.05
2022-11-01T04:07:58.018Z,66.74
2022-11-01T04:10:27.483Z,66.38
2022-11-01T04:12:54.543Z,66.35
2022-11-01T04:15:41.543Z,65.75
2022-11-01T04:18:42.981Z,65.30
2022-11-01T04:21:15.231Z,65.15
2022-11-01T04:23:43.464Z,65.40
2022-11-01T04:26:15.704Z,64.79
2022-11-01T04:28:45.622Z,64.72
2022-11-01T04:31:12.754Z,64.33
2022-11-01T04:33:39.770Z,64.81
2022-11-01T04:36:07.894Z,65.53
2022-11-01T04:38:34.903Z,65.12
2022-11-01T04:41:01.847Z,65.19
2022-11-01T04:43:29.942Z,65.47
2022-11-01T04:45:57.603Z,65.43
2022-11-01T04:48:26.327Z,65.67
2022-11-01T04:50:53.923Z,66.09
2022-11-01T04:53:20.927Z,66.46
2022-11-01T04:55:47.971Z,66.33
2022-11-01T04:58:15.082Z,65.81
2022-11-01T05:00:44.094Z,66.12
2022-11-01T05:03:12.273Z,66.26
2022-11-01T05:05:39.862Z,66.53
2022-11-01T05:08:11.823Z,66.35
2022-11-01T05:10:44.522Z,66.30
2022-11-01T05:13:13.145Z,66.16
2022-11-01T05:15:53.213Z,65.66
2022-11-01T05:18:27.191Z,65.57
2022-11-01T05:20:54.099Z,65.31
2022-11-01T05:23:21.007Z,64.50
2022-11-01T05:25:47.957Z,65.05
2022-11-01T05:28:14.982Z,65.03
2022-11-01T05:30:42.883Z,64.97
2022-11-01T05:33:11.417Z,65.33
2022-11-01T05:35:38.572Z,65.49
2022-11-01T05:38:06.616Z,64.77
2022-11-01T05:40:34.007Z,64.51
2022-11-01T05:43:01.543Z,64.26
2022-11-01T05:45:28.668Z,64.37
2022-11-01T05:47:55.618Z,64.55
2022-11-01T05:50:22.686Z,64.30
2022-11-01T05:52:50.254Z,64.34
2022-11-01T05:55:17.393Z,63.95
2022-11-01T05:57:44.454Z,63.94
2022-11-01T06:00:12.247Z,64.77
2022-11-01T06:02:39.274Z,64.92
2022-11-01T06:05:06.432Z,65.96
2022-11-01T06:07:35.947Z,66.15
2022-11-01T06:10:03.593Z,66.05
2022-11-01T06:12:30.684Z,65.67
2022-11-01T06:14:57.606Z,65.75
2022-11-01T06:17:25.151Z,65.52
2022-11-01T06:19:52.117Z,65.76
2022-11-01T06:22:19.081Z,65.77
2022-11-01T06:24:46.105Z,65.24
2022-11-01T06:27:13.167Z,64.70
2022-11-01T06:29:40.155Z,65.52
2022-11-01T06:32:07.145Z,65.42
2022-11-01T06:34:34.417Z,65.60
2022-11-01T06:37:01.590Z,65.53
2022-11-01T06:39:28.878Z,65.19
2022-11-01T06:41:55.969Z,65.48
2022-11-01T06:44:23.232Z,65.58
2022-11-01T06:46:50.216Z,65.47
2022-11-01T06:49:19.148Z,65.78
2022-11-01T06:51:47.067Z,65.74
2022-11-01T06:54:14.468Z,65.23
2022-11-01T06:56:41.470Z,65.37
2022-11-01T06:59:09.359Z,65.18
2022-11-01T07:01:36.503Z,65.06
2022-11-01T07:04:03.689Z,65.50
2022-11-01T07:06:31.262Z,65.57
2022-11-01T07:09:01.475Z,65.53
2022-11-01T07:11:31.416Z,65.92
2022-11-01T07:14:00.171Z,66.23
2022-11-01T07:16:28.149Z,66.89
2022-11-01T07:18:55.585Z,67.09
2022-11-01T07:21:23.035Z,66.87
2022-11-01T07:23:50.396Z,65.83
2022-11-01T07:26:17.340Z,65.50
2022-11-01T07:28:44.309Z,66.34
2022-11-01T07:31:11.296Z,66.43
2022-11-01T07:33:38.796Z,66.66
2022-11-01T07:36:06.153Z,66.71
2022-11-01T07:38:33.738Z,66.22
2022-11-01T07:41:00.851Z,66.39
2022-11-01T07:43:27.835Z,66.13
2022-11-01T07:46:00.301Z,66.36
2022-11-01T07:48:27.865Z,66.49
2022-11-01T07:50:57.456Z,66.09
2022-11-01T07:53:24.954Z,65.25
2022-11-01T07:55:52.471Z,65.25
2022-11-01T07:58:19.447Z,65.44
2022-11-01T08:00:46.539Z,64.85
2022-11-01T08:03:15.807Z,64.76
2022-11-01T08:05:43.791Z,65.37
2022-11-01T08:08:11.367Z,65.53
2022-11-01T08:10:39.298Z,65.72
2022-11-01T08:13:14.464Z,65.36
2022-11-01T08:15:41.619Z,65.86
2022-11-01T08:18:08.865Z,65.38
2022-11-01T08:20:36.054Z,65.61
2022-11-01T08:23:04.055Z,65.79
2022-11-01T08:25:31.695Z,65.57
2022-11-01T08:28:19.966Z,65.86
2022-11-01T08:30:48.785Z,65.76
2022-11-01T08:33:16.064Z,66.05
2022-11-01T08:35:49.863Z,65.96
2022-11-01T08:38:17.386Z,65.55
2022-11-01T08:40:44.317Z,65.09
2022-11-01T08:43:11.296Z,65.57
2022-11-01T08:45:38.457Z,65.40
2022-11-01T08:48:05.794Z,65.31
2022-11-01T08:50:34.618Z,65.47
2022-11-01T08:53:06.414Z,65.41
2022-11-01T08:55:37.568Z,65.25
2022-11-01T08:58:07.021Z,65.02
2022-11-01T09:00:34.605Z,64.97
2022-11-01T09:03:01.656Z,64.89
2022-11-01T09:05:31.747Z,64.29
2022-11-01T09:08:00.438Z,64.40
2022-11-01T09:10:31.085Z,63.64
2022-11-01T09:13:02.467Z,63.59
2022-11-01T09:15:30.698Z,63.21
2022-11-01T09:17:58.120Z,62.61
2022-11-01T09:20:26.675Z,61.08
2022-11-01T09:22:53.625Z,60.48
2022-11-01T09:25:20.685Z,59.95
2022-11-01T09:27:47.615Z,59.35
2022-11-01T09:30:14.797Z,58.47
2022-11-01T09:32:41.837Z,57.61
2022-11-01T09:35:09.331Z,56.70
2022-11-01T09:37:36.356Z,56.63
2022-11-01T09:40:03.864Z,55.75
2022-11-01T09:42:34.625Z,56.21
2022-11-01T09:45:08.295Z,55.32
2022-11-01T09:47:36.916Z,54.68
2022-11-01T09:50:17.834Z,54.14
2022-11-01T09:52:44.997Z,54.16
2022-11-01T09:55:17.757Z,53.67
2022-11-01T09:57:51.020Z,53.01
2022-11-01T10:00:21.867Z,52.97
2022-11-01T10:06:19.796Z,51.49
2022-11-01T10:09:42.155Z,51.31
2022-11-01T10:12:46.038Z,49.70
2022-11-01T10:15:44.020Z,47.84
2022-11-01T10:18:20.256Z,48.44
2022-11-01T10:20:48.400Z,47.54
2022-11-01T10:23:17.516Z,47.53
2022-11-01T10:25:51.536Z,47.69
2022-11-01T10:28:29.897Z,47.23
2022-11-01T10:31:03.075Z,47.79
2022-11-01T10:33:32.397Z,47.55
2022-11-01T10:36:06.105Z,46.96
2022-11-01T10:39:22.979Z,47.18
2022-11-01T10:41:52.703Z,46.59
2022-11-01T10:44:36.105Z,46.79
2022-11-01T10:47:07.375Z,46.50
2022-11-01T10:50:04.723Z,45.83
2022-11-01T10:52:48.036Z,46.42
2022-11-01T10:55:20.038Z,45.16
2022-11-01T10:57:56.677Z,45.23
2022-11-01T11:00:24.013Z,45.64
2022-11-01T11:03:02.416Z,45.42
2022-11-01T11:05:31.555Z,44.63
2022-11-01T11:07:58.614Z,44.72
2022-11-01T11:10:28.578Z,44.56
2022-11-01T11:13:03.670Z,44.83
2022-11-01T11:15:46.167Z,44.00
2022-11-01T11:18:39.808Z,43.34
2022-11-01T11:21:10.046Z,43.14
2022-11-01T11:23:42.781Z,43.17
2022-11-01T11:26:20.836Z,43.06
2022-11-01T11:28:57.194Z,42.75
2022-11-01T11:31:32.216Z,42.53
2022-11-01T11:34:03.296Z,42.68
2022-11-01T11:36:34.914Z,41.56
2022-11-01T11:39:03.220Z,41.38
2022-11-01T11:41:33.457Z,41.23
2022-11-01T11:44:00.708Z,41.43
2022-11-01T11:46:28.182Z,41.42
2022-11-01T11:49:07.381Z,40.92
2022-11-01T11:51:38.501Z,40.29
2022-11-01T11:54:05.499Z,40.41
2022-11-01T11:56:32.721Z,40.68
2022-11-01T11:59:08.682Z,40.31
2022-11-01T12:13:49.009Z,40.94
2022-11-01T12:16:25.076Z,41.77
2022-11-01T12:18:55.425Z,42.77
2022-11-01T12:21:34.581Z,42.16
2022-11-01T12:24:20.266Z,42.51
2022-11-01T12:26:49.917Z,41.95
2022-11-01T12:29:37.574Z,40.47
2022-11-01T12:32:14.836Z,40.31
2022-11-01T12:34:44.485Z,40.22
2022-11-01T12:37:26.764Z,39.47
2022-11-01T12:40:17.240Z,39.70
2022-11-01T12:42:55.377Z,39.65
2022-11-01T12:45:25.244Z,39.47
2022-11-01T12:48:01.285Z,39.95
2022-11-01T12:50:48.681Z,39.82
2022-11-01T12:53:21.808Z,39.01
2022-11-01T12:55:49.066Z,37.72
2022-11-01T12:58:20.351Z,37.08
2022-11-01T13:00:50.206Z,37.12
2022-11-01T13:03:45.805Z,36.82
2022-11-01T13:06:52.644Z,36.71
2022-11-01T13:09:43.331Z,36.20
2022-11-01T13:12:27.413Z,36.86
2022-11-01T13:15:10.613Z,36.27
2022-11-01T13:17:56.530Z,35.67
2022-11-01T13:20:38.037Z,36.08
2022-11-01T13:23:15.410Z,35.93
2022-11-01T13:25:52.465Z,35.88
2022-11-01T13:28:38.315Z,36.81
2022-11-01T13:31:30.919Z,37.27
2022-11-01T13:34:12.617Z,38.66
2022-11-01T13:36:59.096Z,39.18
2022-11-01T13:39:52.587Z,39.82
2022-11-01T13:42:24.716Z,42.35
2022-11-01T13:45:04.156Z,42.43
2022-11-01T13:47:59.989Z,43.14
2022-11-01T13:50:36.504Z,44.99
2022-11-01T13:53:15.403Z,46.12
2022-11-01T13:55:52.076Z,46.27
2022-11-01T13:58:20.625Z,46.14
2022-11-01T14:00:51.722Z,46.94
2022-11-01T14:03:23.422Z,48.35
2022-11-01T14:06:09.651Z,48.21
2022-11-01T14:08:42.791Z,49.99
2022-11-01T14:11:34.596Z,50.10
2022-11-01T14:14:45.197Z,49.46
2022-11-01T14:17:24.287Z,49.88
2022-11-01T14:19:58.793Z,50.55
2022-11-01T14:22:33.955Z,50.55
2022-11-01T14:25:23.993Z,50.84
2022-11-01T14:28:11.995Z,51.66
2022-11-01T14:30:42.601Z,51.71
2022-11-01T14:33:14.988Z,51.88
2022-11-01T14:35:47.628Z,52.86
2022-11-01T14:38:20.481Z,53.14
2022-11-01T14:40:59.476Z,53.17
2022-11-01T14:43:36.277Z,53.01
2022-11-01T14:46:09.898Z,52.68
2022-11-01T14:48:46.655Z,53.26
2022-11-01T14:51:35.358Z,53.79
2022-11-01T14:54:28.721Z,54.06
2022-11-01T14:56:58.162Z,54.34
2022-11-01T14:59:32.307Z,54.49
2022-11-01T15:02:03.586Z,54.40
2022-11-01T15:04:41.296Z,54.43
2022-11-01T15:07:29.422Z,54.51
2022-11-01T15:09:59.454Z,54.55
2022-11-01T15:12:29.878Z,54.74
2022-11-01T15:14:58.456Z,54.63
2022-11-01T15:17:29.534Z,54.73
2022-11-01T15:19:59.304Z,54.75
2022-11-01T15:22:30.605Z,55.05
2022-11-01T15:25:04.990Z,55.29
2022-11-01T15:27:43.878Z,55.32
2022-11-01T15:30:24.237Z,55.72
2022-11-01T15:32:56.626Z,56.19
2022-11-01T15:35:26.277Z,56.02
2022-11-01T15:37:54.678Z,56.09
2022-11-01T15:40:29.245Z,56.36
2022-11-01T15:43:02.670Z,56.67
2022-11-01T15:45:36.547Z,57.16
2022-11-01T15:48:09.381Z,55.76
2022-11-01T15:50:40.586Z,57.38
2022-11-01T15:53:11.713Z,57.94
2022-11-01T15:55:45.459Z,58.00
2022-11-01T15:58:20.190Z,58.31
2022-11-01T16:00:53.587Z,58.87
2022-11-01T16:03:40.008Z,57.35
2022-11-01T16:06:22.397Z,58.05
2022-11-01T16:09:03.052Z,58.45
2022-11-01T16:11:32.656Z,58.51
2022-11-01T16:14:04.096Z,58.57
2022-11-01T16:16:58.745Z,58.61
2022-11-01T16:19:40.099Z,59.15
2022-11-01T16:22:32.699Z,58.16
2022-11-01T16:25:12.444Z,57.34
2022-11-01T16:27:53.929Z,58.10
2022-11-01T16:30:46.101Z,58.70
2022-11-01T16:33:29.875Z,59.43
2022-11-01T16:36:03.873Z,59.33
2022-11-01T16:38:33.591Z,59.56
2022-11-01T16:41:03.144Z,59.49
2022-11-01T16:43:33.048Z,59.87
2022-11-01T16:46:00.926Z,59.55
2022-11-01T16:48:34.400Z,60.12
2022-11-01T16:51:03.776Z,60.03
2022-11-01T16:53:31.313Z,59.77
2022-11-01T16:56:34.245Z,59.99
2022-11-01T16:58:59.574Z,60.56
2022-11-01T17:01:35.251Z,60.37
2022-11-01T17:04:04.340Z,60.45
2022-11-01T17:06:36.139Z,60.33
2022-11-01T17:09:12.058Z,60.49
2022-11-01T17:11:39.329Z,61.07
2022-11-01T17:14:06.317Z,60.97
2022-11-01T17:16:34.051Z,60.65
2022-11-01T17:19:02.608Z,61.20
2022-11-01T17:21:32.696Z,61.30
2022-11-01T17:23:59.677Z,61.55
2022-11-01T17:26:26.741Z,60.65
2022-11-01T17:28:53.638Z,60.25
2022-11-01T17:31:20.706Z,61.72
2022-11-01T17:33:48.271Z,61.88
2022-11-01T17:36:17.294Z,61.61
2022-11-01T17:38:45.285Z,61.62
2022-11-01T17:41:18.357Z,61.78
2022-11-01T17:43:46.141Z,62.25
2022-11-01T17:46:20.255Z,62.34
2022-11-01T17:48:47.235Z,62.59
2022-11-01T17:51:14.224Z,62.12
2022-11-01T17:53:42.409Z,61.93
2022-11-01T17:56:09.675Z,62.12
2022-11-01T17:58:36.838Z,62.16
2022-11-01T18:01:04.636Z,62.66
2022-11-01T18:03:32.043Z,63.22
2022-11-01T18:05:59.875Z,62.11
2022-11-01T18:08:30.996Z,62.24
2022-11-01T18:11:31.459Z,61.87
2022-11-01T18:14:07.864Z,62.65
2022-11-01T18:16:51.021Z,61.97
2022-11-01T18:19:22.194Z,62.22
2022-11-01T18:21:49.237Z,62.43
2022-11-01T18:24:22.652Z,62.42
2022-11-01T18:26:50.024Z,62.48
2022-11-01T18:29:19.857Z,62.46
2022-11-01T18:31:57.446Z,62.18
2022-11-01T18:34:35.337Z,62.67
2022-11-01T18:37:28.636Z,62.30
2022-11-01T18:40:09.756Z,62.74
2022-11-01T18:42:37.563Z,63.02
2022-11-01T18:45:31.055Z,62.85
2022-11-01T18:48:13.025Z,63.05
2022-11-01T18:50:41.946Z,63.02
2022-11-01T18:53:08.851Z,63.74
2022-11-01T18:55:35.955Z,63.67
2022-11-01T18:58:16.289Z,63.66
2022-11-01T19:00:43.933Z,63.78
2022-11-01T19:03:14.977Z,64.24
2022-11-01T19:05:43.272Z,63.81
2022-11-01T19:08:23.782Z,63.83
2022-11-01T19:10:52.792Z,63.67
2022-11-01T19:13:29.723Z,64.06
2022-11-01T19:16:00.214Z,63.86
2022-11-01T19:18:28.942Z,64.05
2022-11-01T19:21:00.875Z,63.39
2022-11-01T19:23:40.291Z,63.35
2022-11-01T19:26:29.153Z,63.74
2022-11-01T19:28:56.154Z,63.50
2022-11-01T19:31:33.852Z,63.81
2022-11-01T19:34:10.967Z,64.23
2022-11-01T19:36:40.440Z,64.22
2022-11-01T19:39:40.912Z,64.43
2022-11-01T19:42:26.575Z,64.26
2022-11-01T19:45:27.985Z,64.57
2022-11-01T19:47:55.753Z,64.21
2022-11-01T19:50:30.240Z,64.15
2022-11-01T19:53:00.102Z,64.10
2022-11-01T19:55:55.722Z,64.19
2022-11-01T19:58:42.163Z,63.82
2022-11-01T20:01:23.298Z,64.11
2022-11-01T20:03:57.441Z,64.40
2022-11-01T20:06:30.126Z,64.43
2022-11-01T20:09:09.609Z,64.38
2022-11-01T20:11:36.611Z,63.95
2022-11-01T20:14:03.657Z,62.88
2022-11-01T20:16:31.174Z,63.75
2022-11-01T20:18:58.152Z,63.75
2022-11-01T20:21:25.166Z,63.62
2022-11-01T20:23:52.524Z,64.29
2022-11-01T20:26:19.453Z,64.29
2022-11-01T20:28:46.469Z,64.14
2022-11-01T20:31:13.512Z,62.99
2022-11-01T20:33:41.161Z,63.74
2022-11-01T20:36:11.321Z,63.90
2022-11-01T20:38:39.223Z,64.08
2022-11-01T20:41:06.577Z,63.78
2022-11-01T20:43:33.554Z,64.11
2022-11-01T20:46:00.553Z,64.37
2022-11-01T20:48:27.629Z,64.60
2022-11-01T20:50:54.576Z,64.24
2022-11-01T20:53:24.825Z,64.73
2022-11-01T20:55:55.713Z,64.68
2022-11-01T20:58:22.678Z,64.67
2022-11-01T21:00:51.705Z,64.94
2022-11-01T21:03:24.652Z,64.79
2022-11-01T21:05:52.002Z,64.67
2022-11-01T21:08:24.073Z,64.68
2022-11-01T21:11:01.206Z,64.26
2022-11-01T21:13:37.853Z,65.17
2022-11-01T21:16:14.373Z,64.92
2022-11-01T21:18:45.152Z,64.95
2022-11-01T21:21:15.234Z,65.42
2022-11-01T21:23:44.361Z,65.84
2022-11-01T21:26:21.377Z,65.58
2022-11-01T21:28:53.565Z,65.97
2022-11-01T21:31:32.413Z,66.05
2022-11-01T21:34:02.029Z,65.94
2022-11-01T21:36:34.693Z,65.56
2022-11-01T21:39:22.312Z,66.50
2022-11-01T21:41:51.509Z,66.06
2022-11-01T21:44:40.080Z,66.20
2022-11-01T21:47:23.472Z,66.58
2022-11-01T21:49:50.976Z,66.37
2022-11-01T21:52:21.024Z,66.20
2022-11-01T21:54:48.871Z,66.58
2022-11-01T21:57:16.912Z,66.93
2022-11-01T21:59:44.275Z,66.03
2022-11-01T22:02:14.015Z,66.09
2022-11-01T22:04:41.181Z,66.06
2022-11-01T22:07:09.353Z,66.14
2022-11-01T22:09:36.311Z,66.69
2022-11-01T22:12:03.734Z,66.64
2022-11-01T22:14:30.926Z,66.68
2022-11-01T22:16:58.297Z,67.10
2022-11-01T22:19:25.325Z,66.36
2022-11-01T22:21:52.263Z,66.80
2022-11-01T22:24:19.361Z,66.51
2022-11-01T22:26:46.331Z,66.53
2022-11-01T22:29:13.271Z,66.60
2022-11-01T22:31:40.219Z,66.24
2022-11-01T22:34:07.248Z,66.03
2022-11-01T22:36:36.645Z,65.64
2022-11-01T22:39:14.333Z,65.92
2022-11-01T22:41:41.646Z,65.87
2022-11-01T22:44:14.639Z,65.96
2022-11-01T22:46:54.899Z,66.08
2022-11-01T22:49:35.412Z,65.96
2022-11-01T22:52:23.074Z,66.31
2022-11-01T22:55:01.999Z,66.18
2022-11-01T22:57:33.563Z,66.33
2022-11-01T23:00:27.524Z,66.52
2022-11-01T23:03:13.230Z,66.60
2022-11-01T23:05:42.171Z,66.88
2022-11-01T23:08:26.415Z,66.66
2022-11-01T23:10:54.085Z,66.41
2022-11-01T23:13:44.622Z,66.50
2022-11-01T23:16:15.942Z,66.91
2022-11-01T23:18:44.092Z,66.37
2022-11-01T23:21:11.059Z,67.47
2022-11-01T23:23:42.223Z,67.28
2022-11-01T23:26:10.521Z,67.08
2022-11-01T23:28:40.590Z,67.23
2022-11-01T23:31:07.950Z,66.97
2022-11-01T23:33:49.360Z,66.81
2022-11-01T23:36:23.652Z,66.50
2022-11-01T23:41:48.854Z,67.02
2022-11-01T23:44:21.393Z,66.97
2022-11-01T23:46:49.005Z,67.67
2022-11-01T23:49:23.294Z,68.12
2022-11-01T23:51:51.492Z,68.25
2022-11-01T23:54:47.730Z,68.77
2022-11-01T23:57:20.572Z,68.17
2022-11-01T23:59:50.012Z,67.59
